sensor_id;sensor_type;location;lat;lon;timestamp;temperature;humidity
5834;DHT22;2943;48.012;10.968;2023-02-15T00:01:29;-0.60;99.90
5834;DHT22;2943;48.012;10.968;2023-02-15T00:03:56;-0.60;99.90
5834;DHT22;2943;48.012;10.968;2023-02-15T00:06:24;-0.60;99.90
5834;DHT22;2943;48.012;10.968;2023-02-15T00:08:53;-0.70;99.90
5834;DHT22;2943;48.012;10.968;2023-02-15T00:11:20;-0.60;99.90
5834;DHT22;2943;48.012;10.968;2023-02-15T00:14:06;-0.60;99.90
5834;DHT22;2943;48.012;10.968;2023-02-15T00:16:33;-0.70;99.90
5834;DHT22;2943;48.012;10.968;2023-02-15T00:19:00;-0.60;99.90
5834;DHT22;2943;48.012;10.968;2023-02-15T00:21:29;-0.70;99.90
5834;DHT22;2943;48.012;10.968;2023-02-15T00:23:57;-0.60;99.90
5834;DHT22;2943;48.012;10.968;2023-02-15T00:26:25;-0.70;99.90
5834;DHT22;2943;48.012;10.968;2023-02-15T00:28:52;-0.70;99.90
5834;DHT22;2943;48.012;10.968;2023-02-15T00:31:20;-0.70;99.90
5834;DHT22;2943;48.012;10.968;2023-02-15T00:33:47;-0.70;99.90
5834;DHT22;2943;48.012;10.968;2023-02-15T00:36:14;-0.70;99.90
5834;DHT22;2943;48.012;10.968;2023-02-15T00:38:42;-0.80;99.90
5834;DHT22;2943;48.012;10.968;2023-02-15T00:41:10;-0.70;99.90
5834;DHT22;2943;48.012;10.968;2023-02-15T00:43:36;-0.80;99.90
5834;DHT22;2943;48.012;10.968;2023-02-15T00:46:04;-0.80;99.90
5834;DHT22;2943;48.012;10.968;2023-02-15T00:48:31;-0.80;99.90
5834;DHT22;2943;48.012;10.968;2023-02-15T00:50:59;-0.90;99.90
5834;DHT22;2943;48.012;10.968;2023-02-15T00:53:27;-0.90;99.90
5834;DHT22;2943;48.012;10.968;2023-02-15T00:55:55;-0.90;99.90
5834;DHT22;2943;48.012;10.968;2023-02-15T00:58:22;-1.00;99.90
5834;DHT22;2943;48.012;10.968;2023-02-15T01:00:49;-1.00;99.90
5834;DHT22;2943;48.012;10.968;2023-02-15T01:03:18;-1.00;99.90
5834;DHT22;2943;48.012;10.968;2023-02-15T01:05:47;-1.10;99.90
5834;DHT22;2943;48.012;10.968;2023-02-15T01:08:14;-1.10;99.90
5834;DHT22;2943;48.012;10.968;2023-02-15T01:10:41;-1.10;99.90
5834;DHT22;2943;48.012;10.968;2023-02-15T01:13:10;-1.10;99.90
5834;DHT22;2943;48.012;10.968;2023-02-15T01:15:37;-1.20;99.90
5834;DHT22;2943;48.012;10.968;2023-02-15T01:18:04;-1.10;99.90
5834;DHT22;2943;48.012;10.968;2023-02-15T01:20:34;-1.20;99.90
5834;DHT22;2943;48.012;10.968;2023-02-15T01:23:02;-1.10;99.90
5834;DHT22;2943;48.012;10.968;2023-02-15T01:25:29;-1.20;99.90
5834;DHT22;2943;48.012;10.968;2023-02-15T01:27:56;-1.20;99.90
5834;DHT22;2943;48.012;10.968;2023-02-15T01:30:24;-1.20;99.90
5834;DHT22;2943;48.012;10.968;2023-02-15T01:32:51;-1.30;99.90
5834;DHT22;2943;48.012;10.968;2023-02-15T01:35:18;-1.30;99.90
5834;DHT22;2943;48.012;10.968;2023-02-15T01:37:45;-1.30;99.90
5834;DHT22;2943;48.012;10.968;2023-02-15T01:40:14;-1.30;99.90
5834;DHT22;2943;48.012;10.968;2023-02-15T01:42:45;-1.30;99.90
5834;DHT22;2943;48.012;10.968;2023-02-15T01:45:20;-1.30;99.90
5834;DHT22;2943;48.012;10.968;2023-02-15T01:47:52;-1.40;99.90
5834;DHT22;2943;48.012;10.968;2023-02-15T01:50:24;-1.40;99.90
5834;DHT22;2943;48.012;10.968;2023-02-15T01:52:55;-1.40;99.90
5834;DHT22;2943;48.012;10.968;2023-02-15T01:55:27;-1.40;99.90
5834;DHT22;2943;48.012;10.968;2023-02-15T01:57:55;-1.40;99.90
5834;DHT22;2943;48.012;10.968;2023-02-15T02:00:22;-1.40;99.90
5834;DHT22;2943;48.012;10.968;2023-02-15T02:02:54;-1.40;99.90
5834;DHT22;2943;48.012;10.968;2023-02-15T02:05:21;-1.50;99.90
5834;DHT22;2943;48.012;10.968;2023-02-15T02:07:50;-1.50;99.90
5834;DHT22;2943;48.012;10.968;2023-02-15T02:10:19;-1.50;99.90
5834;DHT22;2943;48.012;10.968;2023-02-15T02:12:48;-1.50;99.90
5834;DHT22;2943;48.012;10.968;2023-02-15T02:15:16;-1.50;99.90
5834;DHT22;2943;48.012;10.968;2023-02-15T02:17:54;-1.50;99.90
5834;DHT22;2943;48.012;10.968;2023-02-15T02:20:47;-1.50;99.90
5834;DHT22;2943;48.012;10.968;2023-02-15T02:23:35;-1.50;99.90
5834;DHT22;2943;48.012;10.968;2023-02-15T02:32:43;-1.50;99.90
5834;DHT22;2943;48.012;10.968;2023-02-15T02:35:15;-1.60;99.90
5834;DHT22;2943;48.012;10.968;2023-02-15T02:37:50;-1.60;99.90
5834;DHT22;2943;48.012;10.968;2023-02-15T02:40:27;-1.60;99.90
5834;DHT22;2943;48.012;10.968;2023-02-15T02:43:01;-1.60;99.90
5834;DHT22;2943;48.012;10.968;2023-02-15T02:45:34;-1.70;99.90
5834;DHT22;2943;48.012;10.968;2023-02-15T02:48:11;-1.70;99.90
5834;DHT22;2943;48.012;10.968;2023-02-15T02:50:40;-1.70;99.90
5834;DHT22;2943;48.012;10.968;2023-02-15T02:53:11;-1.70;99.90
5834;DHT22;2943;48.012;10.968;2023-02-15T02:55:41;-1.70;99.90
5834;DHT22;2943;48.012;10.968;2023-02-15T02:58:14;-1.80;99.90
5834;DHT22;2943;48.012;10.968;2023-02-15T03:00:45;-1.80;99.90
5834;DHT22;2943;48.012;10.968;2023-02-15T03:03:18;-1.90;99.90
5834;DHT22;2943;48.012;10.968;2023-02-15T03:05:51;-1.90;99.90
5834;DHT22;2943;48.012;10.968;2023-02-15T03:08:21;-1.90;99.90
5834;DHT22;2943;48.012;10.968;2023-02-15T03:10:51;-1.90;99.90
5834;DHT22;2943;48.012;10.968;2023-02-15T03:13:20;-1.90;99.90
5834;DHT22;2943;48.012;10.968;2023-02-15T03:15:48;-1.90;99.90
5834;DHT22;2943;48.012;10.968;2023-02-15T03:18:38;-1.90;99.90
5834;DHT22;2943;48.012;10.968;2023-02-15T03:21:09;-2.00;99.90
5834;DHT22;2943;48.012;10.968;2023-02-15T03:23:49;-2.00;99.90
5834;DHT22;2943;48.012;10.968;2023-02-15T03:26:19;-1.90;99.90
5834;DHT22;2943;48.012;10.968;2023-02-15T03:28:50;-2.00;99.90
5834;DHT22;2943;48.012;10.968;2023-02-15T03:31:21;-2.00;99.90
5834;DHT22;2943;48.012;10.968;2023-02-15T03:33:56;-2.00;99.90
5834;DHT22;2943;48.012;10.968;2023-02-15T03:36:28;-2.10;99.90
5834;DHT22;2943;48.012;10.968;2023-02-15T03:39:02;-2.10;99.90
5834;DHT22;2943;48.012;10.968;2023-02-15T03:41:34;-2.00;99.90
5834;DHT22;2943;48.012;10.968;2023-02-15T03:44:05;-2.10;99.90
5834;DHT22;2943;48.012;10.968;2023-02-15T03:46:39;-2.10;99.90
5834;DHT22;2943;48.012;10.968;2023-02-15T03:49:11;-2.10;99.90
5834;DHT22;2943;48.012;10.968;2023-02-15T03:51:43;-2.10;99.90
5834;DHT22;2943;48.012;10.968;2023-02-15T03:54:14;-2.10;99.90
5834;DHT22;2943;48.012;10.968;2023-02-15T03:57:04;-2.10;99.90
5834;DHT22;2943;48.012;10.968;2023-02-15T03:59:48;-2.10;99.90
5834;DHT22;2943;48.012;10.968;2023-02-15T04:02:37;-2.10;99.90
5834;DHT22;2943;48.012;10.968;2023-02-15T04:05:06;-2.20;99.90
5834;DHT22;2943;48.012;10.968;2023-02-15T04:07:33;-2.20;99.90
5834;DHT22;2943;48.012;10.968;2023-02-15T04:09:59;-2.20;99.90
5834;DHT22;2943;48.012;10.968;2023-02-15T04:12:44;-2.20;99.90
5834;DHT22;2943;48.012;10.968;2023-02-15T04:15:12;-2.20;99.90
5834;DHT22;2943;48.012;10.968;2023-02-15T04:17:56;-2.20;99.90
5834;DHT22;2943;48.012;10.968;2023-02-15T04:20:25;-2.20;99.90
5834;DHT22;2943;48.012;10.968;2023-02-15T04:23:09;-2.30;99.90
5834;DHT22;2943;48.012;10.968;2023-02-15T04:25:53;-2.30;99.90
5834;DHT22;2943;48.012;10.968;2023-02-15T04:28:20;-2.20;99.90
5834;DHT22;2943;48.012;10.968;2023-02-15T04:30:47;-2.30;99.90
5834;DHT22;2943;48.012;10.968;2023-02-15T04:33:14;-2.30;99.90
5834;DHT22;2943;48.012;10.968;2023-02-15T04:35:43;-2.30;99.90
5834;DHT22;2943;48.012;10.968;2023-02-15T04:38:11;-2.30;99.90
5834;DHT22;2943;48.012;10.968;2023-02-15T04:40:38;-2.30;99.90
5834;DHT22;2943;48.012;10.968;2023-02-15T04:43:05;-2.30;99.90
5834;DHT22;2943;48.012;10.968;2023-02-15T04:45:32;-2.30;99.90
5834;DHT22;2943;48.012;10.968;2023-02-15T04:47:59;-2.30;99.90
5834;DHT22;2943;48.012;10.968;2023-02-15T04:50:26;-2.30;99.90
5834;DHT22;2943;48.012;10.968;2023-02-15T04:52:54;-2.30;99.90
5834;DHT22;2943;48.012;10.968;2023-02-15T04:55:21;-2.40;99.90
5834;DHT22;2943;48.012;10.968;2023-02-15T04:57:48;-2.40;99.90
5834;DHT22;2943;48.012;10.968;2023-02-15T05:00:15;-2.40;99.90
5834;DHT22;2943;48.012;10.968;2023-02-15T05:02:42;-2.50;99.90
5834;DHT22;2943;48.012;10.968;2023-02-15T05:05:09;-2.50;99.90
5834;DHT22;2943;48.012;10.968;2023-02-15T05:07:38;-2.40;99.90
5834;DHT22;2943;48.012;10.968;2023-02-15T05:10:08;-2.50;99.90
5834;DHT22;2943;48.012;10.968;2023-02-15T05:12:35;-2.50;99.90
5834;DHT22;2943;48.012;10.968;2023-02-15T05:15:02;-2.50;99.90
5834;DHT22;2943;48.012;10.968;2023-02-15T05:17:29;-2.50;99.90
5834;DHT22;2943;48.012;10.968;2023-02-15T05:19:56;-2.60;99.90
5834;DHT22;2943;48.012;10.968;2023-02-15T05:22:22;-2.60;99.90
5834;DHT22;2943;48.012;10.968;2023-02-15T05:24:49;-2.60;99.90
5834;DHT22;2943;48.012;10.968;2023-02-15T05:27:35;-2.60;99.90
5834;DHT22;2943;48.012;10.968;2023-02-15T05:30:19;-2.60;99.90
5834;DHT22;2943;48.012;10.968;2023-02-15T05:32:46;-2.60;99.90
5834;DHT22;2943;48.012;10.968;2023-02-15T05:35:15;-2.60;99.90
5834;DHT22;2943;48.012;10.968;2023-02-15T05:37:42;-2.60;99.90
5834;DHT22;2943;48.012;10.968;2023-02-15T05:40:10;-2.60;99.90
5834;DHT22;2943;48.012;10.968;2023-02-15T05:42:39;-2.60;99.90
5834;DHT22;2943;48.012;10.968;2023-02-15T05:45:06;-2.60;99.90
5834;DHT22;2943;48.012;10.968;2023-02-15T05:47:33;-2.70;99.90
5834;DHT22;2943;48.012;10.968;2023-02-15T05:50:00;-2.70;99.90
5834;DHT22;2943;48.012;10.968;2023-02-15T05:52:27;-2.70;99.90
5834;DHT22;2943;48.012;10.968;2023-02-15T05:54:54;-2.70;99.90
5834;DHT22;2943;48.012;10.968;2023-02-15T05:57:20;-2.70;99.90
5834;DHT22;2943;48.012;10.968;2023-02-15T05:59:49;-2.70;99.90
5834;DHT22;2943;48.012;10.968;2023-02-15T06:02:15;-2.60;99.90
5834;DHT22;2943;48.012;10.968;2023-02-15T06:04:42;-2.60;99.90
5834;DHT22;2943;48.012;10.968;2023-02-15T06:07:09;-2.60;99.90
5834;DHT22;2943;48.012;10.968;2023-02-15T06:09:36;-2.60;99.90
5834;DHT22;2943;48.012;10.968;2023-02-15T06:12:03;-2.60;99.90
5834;DHT22;2943;48.012;10.968;2023-02-15T06:14:30;-2.60;99.90
5834;DHT22;2943;48.012;10.968;2023-02-15T06:16:59;-2.60;99.90
5834;DHT22;2943;48.012;10.968;2023-02-15T06:19:25;-2.60;99.90
5834;DHT22;2943;48.012;10.968;2023-02-15T06:21:52;-2.60;99.90
5834;DHT22;2943;48.012;10.968;2023-02-15T06:24:19;-2.60;99.90
5834;DHT22;2943;48.012;10.968;2023-02-15T06:26:46;-2.60;99.90
5834;DHT22;2943;48.012;10.968;2023-02-15T06:29:13;-2.60;99.90
5834;DHT22;2943;48.012;10.968;2023-02-15T06:31:40;-2.60;99.90
5834;DHT22;2943;48.012;10.968;2023-02-15T06:34:08;-2.60;99.90
5834;DHT22;2943;48.012;10.968;2023-02-15T06:36:35;-2.60;99.90
5834;DHT22;2943;48.012;10.968;2023-02-15T06:39:02;-2.60;99.90
5834;DHT22;2943;48.012;10.968;2023-02-15T06:41:30;-2.70;99.90
5834;DHT22;2943;48.012;10.968;2023-02-15T06:43:56;-2.70;99.90
5834;DHT22;2943;48.012;10.968;2023-02-15T06:46:23;-2.60;99.90
5834;DHT22;2943;48.012;10.968;2023-02-15T06:48:50;-2.60;99.90
5834;DHT22;2943;48.012;10.968;2023-02-15T06:51:19;-2.60;99.90
5834;DHT22;2943;48.012;10.968;2023-02-15T06:53:46;-2.60;99.90
5834;DHT22;2943;48.012;10.968;2023-02-15T06:56:17;-2.60;99.90
5834;DHT22;2943;48.012;10.968;2023-02-15T06:58:44;-2.60;99.90
5834;DHT22;2943;48.012;10.968;2023-02-15T07:01:13;-2.60;99.90
5834;DHT22;2943;48.012;10.968;2023-02-15T07:03:43;-2.60;99.90
5834;DHT22;2943;48.012;10.968;2023-02-15T07:06:21;-2.60;99.90
5834;DHT22;2943;48.012;10.968;2023-02-15T07:08:48;-2.60;99.90
5834;DHT22;2943;48.012;10.968;2023-02-15T07:11:15;-2.50;99.90
5834;DHT22;2943;48.012;10.968;2023-02-15T07:13:59;-2.50;99.90
5834;DHT22;2943;48.012;10.968;2023-02-15T07:16:26;-2.50;99.90
5834;DHT22;2943;48.012;10.968;2023-02-15T07:18:53;-2.50;99.90
5834;DHT22;2943;48.012;10.968;2023-02-15T07:21:21;-2.40;99.90
5834;DHT22;2943;48.012;10.968;2023-02-15T07:23:48;-2.40;99.90
5834;DHT22;2943;48.012;10.968;2023-02-15T07:26:15;-2.40;99.90
5834;DHT22;2943;48.012;10.968;2023-02-15T07:28:42;-2.40;99.90
5834;DHT22;2943;48.012;10.968;2023-02-15T07:31:09;-2.40;99.90
5834;DHT22;2943;48.012;10.968;2023-02-15T07:33:36;-2.30;99.90
5834;DHT22;2943;48.012;10.968;2023-02-15T07:36:06;-2.30;99.90
5834;DHT22;2943;48.012;10.968;2023-02-15T07:38:37;-2.30;99.90
5834;DHT22;2943;48.012;10.968;2023-02-15T07:41:07;-2.20;99.90
5834;DHT22;2943;48.012;10.968;2023-02-15T07:43:36;-2.20;99.90
5834;DHT22;2943;48.012;10.968;2023-02-15T07:46:05;-2.10;99.90
5834;DHT22;2943;48.012;10.968;2023-02-15T07:48:33;-2.10;99.90
5834;DHT22;2943;48.012;10.968;2023-02-15T07:51:00;-2.00;99.90
5834;DHT22;2943;48.012;10.968;2023-02-15T07:53:28;-1.60;99.90
5834;DHT22;2943;48.012;10.968;2023-02-15T07:55:58;-1.30;99.90
5834;DHT22;2943;48.012;10.968;2023-02-15T07:58:25;-1.00;99.90
5834;DHT22;2943;48.012;10.968;2023-02-15T08:01:12;-0.80;99.90
5834;DHT22;2943;48.012;10.968;2023-02-15T08:03:39;-0.80;99.90
5834;DHT22;2943;48.012;10.968;2023-02-15T08:06:06;-0.80;99.90
5834;DHT22;2943;48.012;10.968;2023-02-15T08:08:34;-0.80;99.90
5834;DHT22;2943;48.012;10.968;2023-02-15T08:11:05;-0.80;99.90
5834;DHT22;2943;48.012;10.968;2023-02-15T08:13:51;-0.90;99.90
5834;DHT22;2943;48.012;10.968;2023-02-15T08:16:27;-0.90;99.90
5834;DHT22;2943;48.012;10.968;2023-02-15T08:18:54;-0.90;99.90
5834;DHT22;2943;48.012;10.968;2023-02-15T08:21:22;-0.90;99.90
5834;DHT22;2943;48.012;10.968;2023-02-15T08:23:49;-0.90;99.90
5834;DHT22;2943;48.012;10.968;2023-02-15T08:26:18;-0.90;99.90
5834;DHT22;2943;48.012;10.968;2023-02-15T08:28:45;-0.80;99.90
5834;DHT22;2943;48.012;10.968;2023-02-15T08:31:15;-0.80;99.90
5834;DHT22;2943;48.012;10.968;2023-02-15T08:33:43;-0.80;99.90
5834;DHT22;2943;48.012;10.968;2023-02-15T08:36:12;-0.80;99.90
5834;DHT22;2943;48.012;10.968;2023-02-15T08:38:47;-0.70;99.90
5834;DHT22;2943;48.012;10.968;2023-02-15T08:41:23;-0.70;99.90
5834;DHT22;2943;48.012;10.968;2023-02-15T08:44:01;-0.60;99.90
5834;DHT22;2943;48.012;10.968;2023-02-15T08:46:30;-0.50;99.90
5834;DHT22;2943;48.012;10.968;2023-02-15T08:48:58;-0.40;99.90
5834;DHT22;2943;48.012;10.968;2023-02-15T08:51:27;-0.30;99.90
5834;DHT22;2943;48.012;10.968;2023-02-15T08:53:56;-0.20;99.90
5834;DHT22;2943;48.012;10.968;2023-02-15T08:56:26;-0.10;99.90
5834;DHT22;2943;48.012;10.968;2023-02-15T08:58:57;-0.10;99.90
5834;DHT22;2943;48.012;10.968;2023-02-15T09:01:25;0.00;99.90
5834;DHT22;2943;48.012;10.968;2023-02-15T09:03:57;0.10;99.90
5834;DHT22;2943;48.012;10.968;2023-02-15T09:06:25;0.30;99.90
5834;DHT22;2943;48.012;10.968;2023-02-15T09:08:52;0.50;99.90
5834;DHT22;2943;48.012;10.968;2023-02-15T09:11:22;0.60;99.90
5834;DHT22;2943;48.012;10.968;2023-02-15T09:13:53;0.70;99.90
5834;DHT22;2943;48.012;10.968;2023-02-15T09:16:20;0.80;99.90
5834;DHT22;2943;48.012;10.968;2023-02-15T09:18:49;0.90;99.90
5834;DHT22;2943;48.012;10.968;2023-02-15T09:21:18;1.10;99.90
5834;DHT22;2943;48.012;10.968;2023-02-15T09:23:47;1.20;99.90
5834;DHT22;2943;48.012;10.968;2023-02-15T09:26:16;1.30;99.90
5834;DHT22;2943;48.012;10.968;2023-02-15T09:28:44;1.40;99.90
5834;DHT22;2943;48.012;10.968;2023-02-15T09:31:14;1.60;99.90
5834;DHT22;2943;48.012;10.968;2023-02-15T09:33:43;1.80;99.90
5834;DHT22;2943;48.012;10.968;2023-02-15T09:36:15;1.90;99.90
5834;DHT22;2943;48.012;10.968;2023-02-15T09:38:42;2.00;99.90
5834;DHT22;2943;48.012;10.968;2023-02-15T09:41:28;2.10;99.90
5834;DHT22;2943;48.012;10.968;2023-02-15T09:44:10;2.20;99.90
5834;DHT22;2943;48.012;10.968;2023-02-15T09:46:50;2.40;99.90
5834;DHT22;2943;48.012;10.968;2023-02-15T09:49:32;2.50;99.90
5834;DHT22;2943;48.012;10.968;2023-02-15T09:52:27;2.70;99.90
5834;DHT22;2943;48.012;10.968;2023-02-15T09:55:12;2.80;99.90
5834;DHT22;2943;48.012;10.968;2023-02-15T09:57:46;3.00;99.90
5834;DHT22;2943;48.012;10.968;2023-02-15T10:00:25;3.10;99.90
5834;DHT22;2943;48.012;10.968;2023-02-15T10:03:13;3.30;99.90
5834;DHT22;2943;48.012;10.968;2023-02-15T10:05:52;3.40;99.90
5834;DHT22;2943;48.012;10.968;2023-02-15T10:08:34;3.60;99.90
5834;DHT22;2943;48.012;10.968;2023-02-15T10:11:13;3.70;99.90
5834;DHT22;2943;48.012;10.968;2023-02-15T10:14:12;3.80;99.90
5834;DHT22;2943;48.012;10.968;2023-02-15T10:16:47;3.90;99.90
5834;DHT22;2943;48.012;10.968;2023-02-15T10:19:24;4.00;99.90
5834;DHT22;2943;48.012;10.968;2023-02-15T10:22:01;4.10;99.90
5834;DHT22;2943;48.012;10.968;2023-02-15T10:24:44;4.20;99.90
5834;DHT22;2943;48.012;10.968;2023-02-15T10:27:19;4.20;99.90
5834;DHT22;2943;48.012;10.968;2023-02-15T10:29:52;4.40;99.90
5834;DHT22;2943;48.012;10.968;2023-02-15T10:32:23;4.50;99.90
5834;DHT22;2943;48.012;10.968;2023-02-15T10:34:56;4.60;99.90
5834;DHT22;2943;48.012;10.968;2023-02-15T10:37:39;4.70;99.90
5834;DHT22;2943;48.012;10.968;2023-02-15T10:40:18;4.70;99.90
5834;DHT22;2943;48.012;10.968;2023-02-15T10:43:04;4.80;99.90
5834;DHT22;2943;48.012;10.968;2023-02-15T10:45:40;5.00;99.90
5834;DHT22;2943;48.012;10.968;2023-02-15T10:48:50;5.00;99.90
5834;DHT22;2943;48.012;10.968;2023-02-15T10:51:28;5.10;99.90
5834;DHT22;2943;48.012;10.968;2023-02-15T10:54:14;5.20;99.90
5834;DHT22;2943;48.012;10.968;2023-02-15T10:56:53;5.20;99.90
5834;DHT22;2943;48.012;10.968;2023-02-15T11:02:20;5.40;99.90
5834;DHT22;2943;48.012;10.968;2023-02-15T11:04:55;5.50;99.90
5834;DHT22;2943;48.012;10.968;2023-02-15T11:07:27;5.70;99.90
5834;DHT22;2943;48.012;10.968;2023-02-15T11:10:01;5.80;99.90
5834;DHT22;2943;48.012;10.968;2023-02-15T11:12:33;5.90;99.90
5834;DHT22;2943;48.012;10.968;2023-02-15T11:15:04;6.00;99.90
5834;DHT22;2943;48.012;10.968;2023-02-15T11:17:39;6.10;99.90
5834;DHT22;2943;48.012;10.968;2023-02-15T11:20:16;6.30;99.90
5834;DHT22;2943;48.012;10.968;2023-02-15T11:22:49;6.40;99.90
5834;DHT22;2943;48.012;10.968;2023-02-15T11:25:22;6.60;99.90
5834;DHT22;2943;48.012;10.968;2023-02-15T11:27:50;6.70;99.90
5834;DHT22;2943;48.012;10.968;2023-02-15T11:30:21;6.90;99.90
5834;DHT22;2943;48.012;10.968;2023-02-15T11:32:50;7.00;99.90
5834;DHT22;2943;48.012;10.968;2023-02-15T11:35:24;7.20;99.90
5834;DHT22;2943;48.012;10.968;2023-02-15T11:37:59;7.20;99.90
5834;DHT22;2943;48.012;10.968;2023-02-15T11:40:30;7.20;99.90
5834;DHT22;2943;48.012;10.968;2023-02-15T11:43:02;7.30;99.90
5834;DHT22;2943;48.012;10.968;2023-02-15T11:45:32;7.30;99.90
5834;DHT22;2943;48.012;10.968;2023-02-15T11:48:00;7.30;99.90
5834;DHT22;2943;48.012;10.968;2023-02-15T11:50:30;7.40;99.90
5834;DHT22;2943;48.012;10.968;2023-02-15T11:53:01;7.40;99.90
5834;DHT22;2943;48.012;10.968;2023-02-15T11:55:29;7.50;99.90
5834;DHT22;2943;48.012;10.968;2023-02-15T11:58:00;7.60;99.90
5834;DHT22;2943;48.012;10.968;2023-02-15T12:00:32;7.60;99.90
5834;DHT22;2943;48.012;10.968;2023-02-15T12:03:07;7.60;99.90
5834;DHT22;2943;48.012;10.968;2023-02-15T12:05:41;7.70;99.90
5834;DHT22;2943;48.012;10.968;2023-02-15T12:08:15;7.70;99.90
5834;DHT22;2943;48.012;10.968;2023-02-15T12:11:00;7.80;99.90
5834;DHT22;2943;48.012;10.968;2023-02-15T12:13:29;7.90;99.90
5834;DHT22;2943;48.012;10.968;2023-02-15T12:16:05;8.00;99.90
5834;DHT22;2943;48.012;10.968;2023-02-15T12:18:38;8.10;99.90
5834;DHT22;2943;48.012;10.968;2023-02-15T12:21:08;8.20;99.90
5834;DHT22;2943;48.012;10.968;2023-02-15T12:23:46;8.20;99.90
5834;DHT22;2943;48.012;10.968;2023-02-15T12:26:15;8.30;99.90
5834;DHT22;2943;48.012;10.968;2023-02-15T12:28:50;8.40;99.90
5834;DHT22;2943;48.012;10.968;2023-02-15T12:31:22;8.50;99.90
5834;DHT22;2943;48.012;10.968;2023-02-15T12:33:53;8.50;99.90
5834;DHT22;2943;48.012;10.968;2023-02-15T12:36:21;8.60;99.90
5834;DHT22;2943;48.012;10.968;2023-02-15T12:39:17;8.60;99.90
5834;DHT22;2943;48.012;10.968;2023-02-15T12:41:46;8.70;99.90
5834;DHT22;2943;48.012;10.968;2023-02-15T12:44:25;8.70;99.90
5834;DHT22;2943;48.012;10.968;2023-02-15T12:46:59;8.80;99.90
5834;DHT22;2943;48.012;10.968;2023-02-15T12:49:27;8.80;99.90
5834;DHT22;2943;48.012;10.968;2023-02-15T12:51:55;8.90;99.90
5834;DHT22;2943;48.012;10.968;2023-02-15T12:54:36;9.00;99.90
5834;DHT22;2943;48.012;10.968;2023-02-15T12:57:20;9.00;99.90
5834;DHT22;2943;48.012;10.968;2023-02-15T12:59:49;9.10;99.90
5834;DHT22;2943;48.012;10.968;2023-02-15T13:02:22;9.10;99.90
5834;DHT22;2943;48.012;10.968;2023-02-15T13:04:50;9.20;99.90
5834;DHT22;2943;48.012;10.968;2023-02-15T13:07:17;9.20;99.90
5834;DHT22;2943;48.012;10.968;2023-02-15T13:09:47;9.20;99.90
5834;DHT22;2943;48.012;10.968;2023-02-15T13:12:20;9.30;99.90
5834;DHT22;2943;48.012;10.968;2023-02-15T13:14:48;9.30;99.90
5834;DHT22;2943;48.012;10.968;2023-02-15T13:17:19;9.30;99.90
5834;DHT22;2943;48.012;10.968;2023-02-15T13:19:51;9.40;99.90
5834;DHT22;2943;48.012;10.968;2023-02-15T13:22:21;9.40;99.90
5834;DHT22;2943;48.012;10.968;2023-02-15T13:24:53;9.40;99.90
5834;DHT22;2943;48.012;10.968;2023-02-15T13:27:24;9.50;99.90
5834;DHT22;2943;48.012;10.968;2023-02-15T13:29:55;9.40;99.90
5834;DHT22;2943;48.012;10.968;2023-02-15T13:32:29;9.50;99.90
5834;DHT22;2943;48.012;10.968;2023-02-15T13:34:58;9.50;99.90
5834;DHT22;2943;48.012;10.968;2023-02-15T13:37:43;9.50;99.90
5834;DHT22;2943;48.012;10.968;2023-02-15T13:40:18;9.50;99.90
5834;DHT22;2943;48.012;10.968;2023-02-15T13:42:52;9.50;99.90
5834;DHT22;2943;48.012;10.968;2023-02-15T13:45:31;9.50;99.90
5834;DHT22;2943;48.012;10.968;2023-02-15T13:48:08;9.50;99.90
5834;DHT22;2943;48.012;10.968;2023-02-15T13:50:55;9.60;99.90
5834;DHT22;2943;48.012;10.968;2023-02-15T13:53:40;9.60;99.90
5834;DHT22;2943;48.012;10.968;2023-02-15T13:56:14;9.60;99.90
5834;DHT22;2943;48.012;10.968;2023-02-15T13:59:12;9.60;99.90
5834;DHT22;2943;48.012;10.968;2023-02-15T14:01:48;9.60;99.90
5834;DHT22;2943;48.012;10.968;2023-02-15T14:05:02;9.50;99.90
5834;DHT22;2943;48.012;10.968;2023-02-15T14:07:41;9.50;99.90
5834;DHT22;2943;48.012;10.968;2023-02-15T14:10:38;9.50;99.90
5834;DHT22;2943;48.012;10.968;2023-02-15T14:13:31;9.50;99.90
5834;DHT22;2943;48.012;10.968;2023-02-15T14:16:05;9.50;99.90
5834;DHT22;2943;48.012;10.968;2023-02-15T14:18:39;9.50;99.90
5834;DHT22;2943;48.012;10.968;2023-02-15T14:21:13;9.50;99.90
5834;DHT22;2943;48.012;10.968;2023-02-15T14:23:58;9.60;99.90
5834;DHT22;2943;48.012;10.968;2023-02-15T14:26:37;9.60;99.90
5834;DHT22;2943;48.012;10.968;2023-02-15T14:29:16;9.70;99.90
5834;DHT22;2943;48.012;10.968;2023-02-15T14:31:48;9.70;99.90
5834;DHT22;2943;48.012;10.968;2023-02-15T14:34:21;9.80;99.90
5834;DHT22;2943;48.012;10.968;2023-02-15T14:36:50;9.80;99.90
5834;DHT22;2943;48.012;10.968;2023-02-15T14:39:29;9.90;99.90
5834;DHT22;2943;48.012;10.968;2023-02-15T14:42:21;9.90;99.90
5834;DHT22;2943;48.012;10.968;2023-02-15T14:44:57;9.90;99.90
5834;DHT22;2943;48.012;10.968;2023-02-15T14:47:33;9.90;99.90
5834;DHT22;2943;48.012;10.968;2023-02-15T14:50:37;9.90;99.90
5834;DHT22;2943;48.012;10.968;2023-02-15T14:59:13;9.90;99.90
5834;DHT22;2943;48.012;10.968;2023-02-15T15:01:50;9.90;99.90
5834;DHT22;2943;48.012;10.968;2023-02-15T15:04:25;9.90;99.90
5834;DHT22;2943;48.012;10.968;2023-02-15T15:06:59;9.90;99.90
5834;DHT22;2943;48.012;10.968;2023-02-15T15:09:28;9.90;99.90
5834;DHT22;2943;48.012;10.968;2023-02-15T15:12:13;9.90;99.90
5834;DHT22;2943;48.012;10.968;2023-02-15T15:14:42;9.90;99.90
5834;DHT22;2943;48.012;10.968;2023-02-15T15:17:51;9.90;99.90
5834;DHT22;2943;48.012;10.968;2023-02-15T15:20:37;9.80;99.90
5834;DHT22;2943;48.012;10.968;2023-02-15T15:23:38;9.80;99.90
5834;DHT22;2943;48.012;10.968;2023-02-15T15:26:28;9.80;99.90
5834;DHT22;2943;48.012;10.968;2023-02-15T15:29:05;9.70;99.90
5834;DHT22;2943;48.012;10.968;2023-02-15T15:31:41;9.70;99.90
5834;DHT22;2943;48.012;10.968;2023-02-15T15:34:54;9.60;99.90
5834;DHT22;2943;48.012;10.968;2023-02-15T15:41:09;9.50;99.90
5834;DHT22;2943;48.012;10.968;2023-02-15T15:47:09;9.30;99.90
5834;DHT22;2943;48.012;10.968;2023-02-15T15:49:41;9.20;99.90
5834;DHT22;2943;48.012;10.968;2023-02-15T15:52:14;9.20;99.90
5834;DHT22;2943;48.012;10.968;2023-02-15T15:54:42;9.10;99.90
5834;DHT22;2943;48.012;10.968;2023-02-15T15:57:15;9.10;99.90
5834;DHT22;2943;48.012;10.968;2023-02-15T15:59:44;9.10;99.90
5834;DHT22;2943;48.012;10.968;2023-02-15T16:02:15;9.10;99.90
5834;DHT22;2943;48.012;10.968;2023-02-15T16:04:43;9.00;99.90
5834;DHT22;2943;48.012;10.968;2023-02-15T16:07:23;8.90;99.90
5834;DHT22;2943;48.012;10.968;2023-02-15T16:09:55;8.80;99.90
5834;DHT22;2943;48.012;10.968;2023-02-15T16:12:23;8.80;99.90
5834;DHT22;2943;48.012;10.968;2023-02-15T16:14:51;8.70;99.90
5834;DHT22;2943;48.012;10.968;2023-02-15T16:17:23;8.60;99.90
5834;DHT22;2943;48.012;10.968;2023-02-15T16:19:51;8.60;99.90
5834;DHT22;2943;48.012;10.968;2023-02-15T16:22:24;8.50;99.90
5834;DHT22;2943;48.012;10.968;2023-02-15T16:27:55;8.30;99.90
5834;DHT22;2943;48.012;10.968;2023-02-15T16:30:25;8.20;99.90
5834;DHT22;2943;48.012;10.968;2023-02-15T16:32:54;8.10;99.90
5834;DHT22;2943;48.012;10.968;2023-02-15T16:35:22;8.10;99.90
5834;DHT22;2943;48.012;10.968;2023-02-15T16:37:51;8.00;99.90
5834;DHT22;2943;48.012;10.968;2023-02-15T16:40:45;7.90;99.90
5834;DHT22;2943;48.012;10.968;2023-02-15T16:43:19;7.80;99.90
5834;DHT22;2943;48.012;10.968;2023-02-15T16:45:47;7.70;99.90
5834;DHT22;2943;48.012;10.968;2023-02-15T16:48:19;7.60;99.90
5834;DHT22;2943;48.012;10.968;2023-02-15T16:50:50;7.60;99.90
5834;DHT22;2943;48.012;10.968;2023-02-15T16:53:22;7.50;99.90